createdAt,value
2022-10-02T00:01:37.903Z,99414.31
2022-10-02T00:04:11.283Z,99411.00
2022-10-02T00:06:46.545Z,99424.44
2022-10-02T00:09:20.736Z,99422.00
2022-10-02T00:11:53.618Z,99425.34
2022-10-02T00:14:25.243Z,99432.91
2022-10-02T00:16:56.904Z,99427.88
2022-10-02T00:19:25.445Z,99436.31
2022-10-02T00:22:08.372Z,99441.38
2022-10-02T00:24:40.684Z,99441.34
2022-10-02T00:27:16.973Z,99448.91
2022-10-02T00:29:50.702Z,99444.75
2022-10-02T00:32:27.187Z,99449.81
2022-10-02T00:35:17.880Z,99444.78
2022-10-02T00:37:55.824Z,99434.72
2022-10-02T00:40:40.494Z,99445.63
2022-10-02T00:43:18.954Z,99439.78
2022-10-02T00:46:13.665Z,99438.97
2022-10-02T00:48:49.965Z,99443.19
2022-10-02T00:51:33.093Z,99444.03
2022-10-02T00:54:15.653Z,99446.56
2022-10-02T00:56:53.601Z,99444.88
2022-10-02T00:59:44.792Z,99438.16
2022-10-02T01:02:35.049Z,99443.19
2022-10-02T01:05:06.049Z,99434.72
2022-10-02T01:07:35.555Z,99453.19
2022-10-02T01:10:05.109Z,99456.53
2022-10-02T01:12:32.978Z,99449.81
2022-10-02T01:15:00.813Z,99456.53
2022-10-02T01:17:32.541Z,99453.19
2022-10-02T01:20:04.061Z,99454.00
2022-10-02T01:22:37.000Z,99452.34
2022-10-02T01:25:08.514Z,99466.59
2022-10-02T01:27:39.380Z,99430.34
2022-10-02T01:30:10.484Z,99466.59
2022-10-02T01:32:42.650Z,99468.25
2022-10-02T01:35:11.653Z,99475.81
2022-10-02T01:37:42.083Z,99456.44
2022-10-02T01:40:25.245Z,99471.56
2022-10-02T01:42:54.824Z,99473.22
2022-10-02T01:45:31.725Z,99476.53
2022-10-02T01:48:06.539Z,99457.09
2022-10-02T01:50:47.520Z,99479.84
2022-10-02T01:53:24.226Z,99485.72
2022-10-02T01:56:03.474Z,99484.03
2022-10-02T01:58:43.122Z,99495.75
2022-10-02T02:01:23.379Z,99484.81
2022-10-02T02:04:00.188Z,99489.78
2022-10-02T02:06:31.858Z,99501.50
2022-10-02T02:09:09.151Z,99493.97
2022-10-02T02:11:42.292Z,99504.00
2022-10-02T02:14:16.044Z,99498.13
2022-10-02T02:16:46.776Z,99510.69
2022-10-02T02:19:21.339Z,99512.34
2022-10-02T02:21:55.042Z,99515.69
2022-10-02T02:24:27.450Z,99516.50
2022-10-02T02:27:01.789Z,99520.72
2022-10-02T02:29:33.252Z,99520.63
2022-10-02T02:32:05.276Z,99532.41
2022-10-02T02:34:36.788Z,99536.53
2022-10-02T02:37:09.501Z,99537.28
2022-10-02T02:39:42.188Z,99542.28
2022-10-02T02:42:17.679Z,99549.00
2022-10-02T02:44:53.592Z,99556.50
2022-10-02T02:47:25.429Z,99561.50
2022-10-02T02:49:58.316Z,99550.53
2022-10-02T02:52:29.874Z,99562.28
2022-10-02T02:55:03.589Z,99563.09
2022-10-02T02:57:39.002Z,99563.09
2022-10-02T03:00:08.154Z,99564.78
2022-10-02T03:02:36.531Z,99566.47
2022-10-02T03:05:11.616Z,99561.41
2022-10-02T03:07:39.514Z,99563.91
2022-10-02T03:10:16.021Z,99568.09
2022-10-02T03:12:59.417Z,99570.56
2022-10-02T03:15:31.123Z,99561.25
2022-10-02T03:18:27.193Z,99569.63
2022-10-02T03:21:05.283Z,99575.47
2022-10-02T03:23:38.520Z,99586.34
2022-10-02T03:26:12.554Z,99587.97
2022-10-02T03:28:56.392Z,99594.59
2022-10-02T03:31:28.626Z,99594.47
2022-10-02T03:33:59.984Z,99605.47
2022-10-02T03:36:28.332Z,99615.47
2022-10-02T03:39:24.343Z,99607.16
2022-10-02T03:41:47.861Z,99610.44
2022-10-02T03:44:17.015Z,99620.50
2022-10-02T03:46:45.028Z,99632.25
2022-10-02T03:49:12.933Z,99629.75
2022-10-02T03:51:40.802Z,99627.22
2022-10-02T03:54:16.721Z,99617.81
2022-10-02T03:56:52.281Z,99627.94
2022-10-02T03:59:37.762Z,99626.16
2022-10-02T04:02:09.988Z,99629.38
2022-10-02T04:04:45.616Z,99635.19
2022-10-02T04:07:20.240Z,99645.09
2022-10-02T04:09:56.035Z,99634.97
2022-10-02T04:12:30.145Z,99644.09
2022-10-02T04:15:05.045Z,99657.44
2022-10-02T04:17:43.922Z,99652.31
2022-10-02T04:20:17.528Z,99648.81
2022-10-02T04:22:51.322Z,99658.78
2022-10-02T04:25:21.639Z,99652.06
2022-10-02T04:27:56.107Z,99657.00
2022-10-02T04:30:25.676Z,99669.47
2022-10-02T04:32:54.749Z,99682.03
2022-10-02T04:35:30.665Z,99669.28
2022-10-02T04:38:15.963Z,99670.16
2022-10-02T04:40:56.226Z,99681.84
2022-10-02T04:43:43.456Z,99686.81
2022-10-02T04:46:27.640Z,99685.16
2022-10-02T04:49:11.009Z,99688.50
2022-10-02T04:51:51.530Z,99691.03
2022-10-02T04:54:38.515Z,99692.72
2022-10-02T04:57:27.763Z,99695.19
2022-10-02T05:00:06.084Z,99691.84
2022-10-02T05:02:47.695Z,99685.88
2022-10-02T05:05:25.392Z,99695.13
2022-10-02T05:08:24.751Z,99687.56
2022-10-02T05:11:05.959Z,99690.94
2022-10-02T05:14:00.431Z,99695.19
2022-10-02T05:16:41.113Z,99691.03
2022-10-02T05:19:38.454Z,99702.72
2022-10-02T05:22:43.261Z,99704.41
2022-10-02T05:25:23.196Z,99697.72
2022-10-02T05:28:08.778Z,99699.47
2022-10-02T05:30:45.944Z,99696.94
2022-10-02T05:33:39.579Z,99692.81
2022-10-02T05:36:23.653Z,99686.97
2022-10-02T05:39:03.494Z,99690.31
2022-10-02T05:41:41.726Z,99691.16
2022-10-02T05:44:16.228Z,99689.47
2022-10-02T05:46:50.679Z,99693.69
2022-10-02T05:49:21.548Z,99697.09
2022-10-02T05:51:59.551Z,99694.47
2022-10-02T05:54:37.177Z,99697.06
2022-10-02T05:57:11.848Z,99707.13
2022-10-02T05:59:46.018Z,99708.75
2022-10-02T06:02:24.128Z,99713.84
2022-10-02T06:04:58.824Z,99715.69
2022-10-02T06:07:29.271Z,99711.59
2022-10-02T06:10:01.804Z,99704.09
2022-10-02T06:12:36.410Z,99703.31
2022-10-02T06:15:08.608Z,99702.50
2022-10-02T06:17:42.759Z,99695.66
2022-10-02T06:20:19.456Z,99694.81
2022-10-02T06:22:53.035Z,99703.28
2022-10-02T06:25:25.393Z,99711.72
2022-10-02T06:27:58.635Z,99703.50
2022-10-02T06:30:27.564Z,99707.66
2022-10-02T06:33:10.594Z,99697.56
2022-10-02T06:35:55.104Z,99701.09
2022-10-02T06:38:41.672Z,99693.56
2022-10-02T06:41:19.783Z,99702.22
2022-10-02T06:44:07.996Z,99694.69
2022-10-02T06:46:43.845Z,99687.13
2022-10-02T06:49:22.779Z,99706.66
2022-10-02T06:52:04.245Z,99706.69
2022-10-02T06:54:48.906Z,99709.28
2022-10-02T06:57:32.809Z,99714.41
2022-10-02T07:00:10.268Z,99709.47
2022-10-02T07:02:59.523Z,99710.44
2022-10-02T07:05:45.417Z,99714.69
2022-10-02T07:08:22.845Z,99721.47
2022-10-02T07:10:59.239Z,99719.84
2022-10-02T07:13:38.902Z,99722.34
2022-10-02T07:16:37.128Z,99727.47
2022-10-02T07:19:29.865Z,99724.22
2022-10-02T07:22:26.155Z,99725.16
2022-10-02T07:25:23.923Z,99736.28
2022-10-02T07:28:01.583Z,99731.44
2022-10-02T07:30:38.634Z,99730.03
2022-10-02T07:33:12.052Z,99740.38
2022-10-02T07:35:47.058Z,99744.75
2022-10-02T07:38:45.787Z,99736.44
2022-10-02T07:42:01.134Z,99741.59
2022-10-02T07:44:55.637Z,99743.38
2022-10-02T07:47:43.176Z,99748.31
2022-10-02T07:50:14.600Z,99733.94
2022-10-02T07:52:52.137Z,99733.09
2022-10-02T07:55:21.540Z,99751.56
2022-10-02T07:58:01.350Z,99752.47
2022-10-02T08:00:34.891Z,99750.94
2022-10-02T08:03:07.160Z,99751.78
2022-10-02T08:05:40.315Z,99749.25
2022-10-02T08:08:16.703Z,99754.25
2022-10-02T08:10:49.940Z,99755.91
2022-10-02T08:13:21.964Z,99770.13
2022-10-02T08:15:55.891Z,99759.09
2022-10-02T08:18:34.630Z,99773.41
2022-10-02T08:21:06.372Z,99785.19
2022-10-02T08:23:40.576Z,99781.16
2022-10-02T08:26:16.457Z,99783.78
2022-10-02T08:28:50.565Z,99788.84
2022-10-02T08:31:19.823Z,99797.31
2022-10-02T08:33:47.989Z,99785.34
2022-10-02T08:36:40.006Z,99776.00
2022-10-02T08:39:20.353Z,99784.56
2022-10-02T08:42:20.976Z,99787.94
2022-10-02T08:45:22.324Z,99782.00
2022-10-02T08:48:29.880Z,99772.75
2022-10-02T08:51:30.691Z,99779.50
2022-10-02T08:54:32.212Z,99769.47
2022-10-02T08:57:13.160Z,99766.22
2022-10-02T09:00:09.405Z,99777.47
2022-10-02T09:03:33.808Z,99769.19
2022-10-02T09:06:38.681Z,99777.66
2022-10-02T09:09:38.252Z,99765.91
2022-10-02T09:12:45.948Z,99763.47
2022-10-02T09:15:19.516Z,99765.16
2022-10-02T09:17:49.958Z,99758.41
2022-10-02T09:20:42.355Z,99764.28
2022-10-02T09:23:45.396Z,99750.00
2022-10-02T09:26:21.229Z,99739.00
2022-10-02T09:29:14.309Z,99767.63
2022-10-02T09:32:27.625Z,99758.38
2022-10-02T09:35:30.544Z,99751.69
2022-10-02T09:38:38.328Z,99753.38
2022-10-02T09:41:44.296Z,99758.34
2022-10-02T09:44:38.185Z,99752.50
2022-10-02T09:48:04.835Z,99751.66
2022-10-02T09:50:55.678Z,99736.56
2022-10-02T09:54:00.061Z,99738.28
2022-10-02T09:56:56.285Z,99739.97
2022-10-02T09:59:58.151Z,99746.69
2022-10-02T10:02:50.749Z,99738.25
2022-10-02T10:05:48.980Z,99718.84
2022-10-02T10:08:35.407Z,99746.75
2022-10-02T10:11:36.010Z,99757.75
2022-10-02T10:14:40.133Z,99735.06
2022-10-02T10:17:56.592Z,99735.13
2022-10-02T10:20:59.968Z,99735.16
2022-10-02T10:23:52.733Z,99759.53
2022-10-02T10:26:56.159Z,99752.72
2022-10-02T10:29:45.326Z,99754.38
2022-10-02T10:32:42.111Z,99745.16
2022-10-02T10:35:24.819Z,99745.19
2022-10-02T10:38:29.775Z,99733.44
2022-10-02T10:41:11.139Z,99733.41
2022-10-02T10:44:08.301Z,99737.66
2022-10-02T10:47:01.117Z,99727.59
2022-10-02T10:50:02.735Z,99731.94
2022-10-02T10:52:48.006Z,99722.66
2022-10-02T10:55:22.433Z,99721.00
2022-10-02T10:58:03.190Z,99721.00
2022-10-02T11:00:39.289Z,99727.75
2022-10-02T11:03:44.745Z,99721.00
2022-10-02T11:06:34.968Z,99715.13
2022-10-02T11:09:30.881Z,99717.59
2022-10-02T11:12:28.161Z,99710.88
2022-10-02T11:15:10.086Z,99717.66
2022-10-02T11:17:56.353Z,99732.03
2022-10-02T11:21:05.041Z,99724.44
2022-10-02T11:24:02.222Z,99728.63
2022-10-02T11:26:44.270Z,99723.59
2022-10-02T11:29:41.820Z,99722.75
2022-10-02T11:32:31.717Z,99712.59
2022-10-02T11:35:19.642Z,99715.13
2022-10-02T11:38:12.048Z,99710.06
2022-10-02T11:41:15.616Z,99703.34
2022-10-02T11:44:06.172Z,99710.06
2022-10-02T11:46:54.428Z,99700.84
2022-10-02T11:50:16.801Z,99694.97
2022-10-02T11:53:04.309Z,99700.84
2022-10-02T11:55:46.641Z,99698.31
2022-10-02T11:58:26.686Z,99680.63
2022-10-02T12:01:09.645Z,99683.13
2022-10-02T12:03:53.686Z,99699.16
2022-10-02T12:06:36.920Z,99687.38
2022-10-02T12:09:14.712Z,99688.19
2022-10-02T12:11:49.184Z,99694.91
2022-10-02T12:14:30.509Z,99689.00
2022-10-02T12:17:11.796Z,99681.34
2022-10-02T12:20:16.882Z,99689.75
2022-10-02T12:23:13.742Z,99675.53
2022-10-02T12:26:05.054Z,99668.81
2022-10-02T12:28:42.728Z,99673.03
2022-10-02T12:31:19.589Z,99673.06
2022-10-02T12:33:56.787Z,99665.44
2022-10-02T12:36:47.961Z,99647.75
2022-10-02T12:39:32.050Z,99646.91
2022-10-02T12:42:31.168Z,99656.19
2022-10-02T12:45:37.360Z,99653.66
2022-10-02T12:48:30.353Z,99651.16
2022-10-02T12:51:25.890Z,99645.22
2022-10-02T12:54:43.017Z,99635.09
2022-10-02T12:57:47.039Z,99635.09
2022-10-02T13:00:17.202Z,99623.28
2022-10-02T13:03:18.737Z,99640.13
2022-10-02T13:06:34.575Z,99624.97
2022-10-02T13:09:18.095Z,99612.31
2022-10-02T13:12:01.381Z,99620.72
2022-10-02T13:14:50.669Z,99628.34
2022-10-02T13:17:30.256Z,99624.13
2022-10-02T13:20:04.720Z,99633.41
2022-10-02T13:22:40.745Z,99634.25
2022-10-02T13:25:34.937Z,99637.63
2022-10-02T13:28:20.810Z,99630.03
2022-10-02T13:31:01.882Z,99609.81
2022-10-02T13:33:43.916Z,99616.53
2022-10-02T13:36:20.309Z,99626.66
2022-10-02T13:39:11.081Z,99617.41
2022-10-02T13:41:57.610Z,99612.38
2022-10-02T13:44:36.790Z,99602.25
2022-10-02T13:47:22.524Z,99579.53
2022-10-02T13:50:16.698Z,99611.53
2022-10-02T13:52:59.213Z,99607.34
2022-10-02T13:55:29.717Z,99598.06
2022-10-02T13:58:17.285Z,99611.56
2022-10-02T14:00:59.037Z,99603.13
2022-10-02T14:03:47.868Z,99568.53
2022-10-02T14:06:23.040Z,99592.13
2022-10-02T14:09:07.777Z,99588.75
2022-10-02T14:12:01.792Z,99597.16
2022-10-02T14:14:47.095Z,99587.03
2022-10-02T14:17:26.360Z,99583.66
2022-10-02T14:20:18.699Z,99571.06
2022-10-02T14:23:04.055Z,99585.38
2022-10-02T14:25:46.610Z,99560.97
2022-10-02T14:28:35.969Z,99576.13
2022-10-02T14:31:14.613Z,99564.34
2022-10-02T14:34:06.849Z,99566.03
2022-10-02T14:36:45.321Z,99557.63
2022-10-02T14:39:26.649Z,99550.91
2022-10-02T14:42:16.238Z,99552.63
2022-10-02T14:45:07.713Z,99551.75
2022-10-02T14:47:51.169Z,99543.34
2022-10-02T14:50:34.609Z,99539.97
2022-10-02T14:53:15.585Z,99545.03
2022-10-02T14:56:09.276Z,99547.56
2022-10-02T14:58:51.599Z,99536.56
2022-10-02T15:01:23.702Z,99536.56
2022-10-02T15:04:21.987Z,99536.56
2022-10-02T15:07:10.360Z,99533.19
2022-10-02T15:09:53.845Z,99526.50
2022-10-02T15:12:25.168Z,99528.16
2022-10-02T15:15:07.510Z,99528.97
2022-10-02T15:17:58.733Z,99546.63
2022-10-02T15:20:33.752Z,99546.66
2022-10-02T15:23:06.764Z,99544.91
2022-10-02T15:25:58.384Z,99543.19
2022-10-02T15:28:41.323Z,99555.81
2022-10-02T15:31:22.024Z,99574.22
2022-10-02T15:34:02.160Z,99560.72
2022-10-02T15:36:55.472Z,99552.19
2022-10-02T15:39:39.899Z,99549.59
2022-10-02T15:42:09.920Z,99538.56
2022-10-02T15:45:02.619Z,99537.69
2022-10-02T15:47:46.346Z,99544.41
2022-10-02T15:50:31.475Z,99528.41
2022-10-02T15:53:23.296Z,99529.25
2022-10-02T15:56:00.517Z,99535.06
2022-10-02T15:58:53.256Z,99529.16
2022-10-02T16:01:40.309Z,99529.16
2022-10-02T16:04:22.541Z,99530.00
2022-10-02T16:07:31.915Z,99530.00
2022-10-02T16:10:18.023Z,99523.25
2022-10-02T16:13:12.383Z,99525.75
2022-10-02T16:15:51.582Z,99520.72
2022-10-02T16:18:47.646Z,99520.72
2022-10-02T16:21:48.157Z,99523.25
2022-10-02T16:24:39.449Z,99519.03
2022-10-02T16:27:20.268Z,99520.72
2022-10-02T16:30:05.290Z,99513.19
2022-10-02T16:32:50.100Z,99512.34
2022-10-02T16:35:47.151Z,99525.78
2022-10-02T16:38:22.616Z,99527.47
2022-10-02T16:40:57.709Z,99526.66
2022-10-02T16:43:48.627Z,99526.63
2022-10-02T16:46:24.490Z,99519.03
2022-10-02T16:48:57.925Z,99512.34
2022-10-02T16:51:34.532Z,99507.25
2022-10-02T16:54:13.829Z,99510.56
2022-10-02T16:56:50.870Z,99513.88
2022-10-02T16:59:24.728Z,99513.84
2022-10-02T17:02:17.113Z,99528.88
2022-10-02T17:04:56.213Z,99527.19
2022-10-02T17:07:31.730Z,99527.19
2022-10-02T17:10:07.238Z,99522.94
2022-10-02T17:12:45.648Z,99528.88
2022-10-02T17:15:21.934Z,99521.34
2022-10-02T17:18:06.567Z,99528.94
2022-10-02T17:20:44.368Z,99531.47
2022-10-02T17:23:21.241Z,99534.84
2022-10-02T17:25:58.748Z,99539.06
2022-10-02T17:28:36.037Z,99528.16
2022-10-02T17:31:36.045Z,99528.16
2022-10-02T17:34:19.979Z,99529.88
2022-10-02T17:37:02.287Z,99532.38
2022-10-02T17:39:43.979Z,99534.06
2022-10-02T17:42:21.466Z,99536.59
2022-10-02T17:44:59.060Z,99524.81
2022-10-02T17:47:51.492Z,99519.81
2022-10-02T17:50:48.439Z,99530.72
2022-10-02T17:54:03.359Z,99534.94
2022-10-02T17:56:50.743Z,99534.06
2022-10-02T17:59:36.763Z,99541.56
2022-10-02T18:02:14.308Z,99549.91
2022-10-02T18:04:56.878Z,99553.28
2022-10-02T18:07:45.477Z,99554.09
2022-10-02T18:10:24.788Z,99565.91
2022-10-02T18:13:20.464Z,99567.63
2022-10-02T18:16:01.970Z,99569.31
2022-10-02T18:18:37.830Z,99554.19
2022-10-02T18:21:22.722Z,99571.03
2022-10-02T18:24:11.905Z,99577.78
2022-10-02T18:26:53.286Z,99565.09
2022-10-02T18:29:45.795Z,99571.03
2022-10-02T18:32:27.391Z,99569.31
2022-10-02T18:35:19.822Z,99565.09
2022-10-02T18:38:03.048Z,99561.72
2022-10-02T18:40:35.138Z,99562.59
2022-10-02T18:43:38.786Z,99550.84
2022-10-02T18:46:17.704Z,99553.38
2022-10-02T18:49:02.005Z,99554.25
2022-10-02T18:52:10.590Z,99561.78
2022-10-02T18:54:51.738Z,99557.59
2022-10-02T18:57:38.669Z,99557.56
2022-10-02T19:00:19.322Z,99557.53
2022-10-02T19:03:04.282Z,99562.56
2022-10-02T19:05:36.133Z,99564.22
2022-10-02T19:08:17.857Z,99565.06
2022-10-02T19:10:47.891Z,99572.56
2022-10-02T19:13:24.427Z,99567.50
2022-10-02T19:15:55.041Z,99568.34
2022-10-02T19:18:25.355Z,99554.03
2022-10-02T19:20:57.529Z,99556.53
2022-10-02T19:23:32.917Z,99568.28
2022-10-02T19:26:05.806Z,99575.81
2022-10-02T19:28:46.238Z,99575.81
2022-10-02T19:31:21.548Z,99557.28
2022-10-02T19:33:52.647Z,99572.38
2022-10-02T19:36:25.414Z,99570.69
2022-10-02T19:38:57.536Z,99563.13
2022-10-02T19:41:26.360Z,99562.28
2022-10-02T19:43:59.428Z,99560.56
2022-10-02T19:46:38.892Z,99549.59
2022-10-02T19:49:08.700Z,99554.66
2022-10-02T19:51:47.605Z,99564.75
2022-10-02T19:54:21.692Z,99561.38
2022-10-02T19:56:54.373Z,99562.16
2022-10-02T19:59:30.060Z,99547.00
2022-10-02T20:02:01.854Z,99557.09
2022-10-02T20:04:32.109Z,99551.19
2022-10-02T20:07:02.034Z,99553.69
2022-10-02T20:09:34.500Z,99552.78
2022-10-02T20:12:10.305Z,99554.47
2022-10-02T20:14:45.222Z,99555.25
2022-10-02T20:17:13.566Z,99554.38
2022-10-02T20:19:45.219Z,99549.41
2022-10-02T20:22:23.834Z,99551.09
2022-10-02T20:24:57.329Z,99568.75
2022-10-02T20:27:34.802Z,99563.75
2022-10-02T20:30:11.847Z,99551.94
2022-10-02T20:32:43.251Z,99575.56
2022-10-02T20:35:18.222Z,99573.91
2022-10-02T20:37:49.390Z,99570.56
2022-10-02T20:40:21.157Z,99576.44
2022-10-02T20:42:55.160Z,99569.72
2022-10-02T20:45:33.797Z,99567.19
2022-10-02T20:49:03.493Z,99577.28
2022-10-02T20:52:11.512Z,99568.78
2022-10-02T20:54:51.513Z,99577.19
2022-10-02T20:58:02.211Z,99573.81
2022-10-02T21:00:44.143Z,99573.75
2022-10-02T21:03:26.942Z,99577.88
2022-10-02T21:06:26.324Z,99581.19
2022-10-02T21:09:28.895Z,99577.72
2022-10-02T21:12:23.499Z,99564.09
2022-10-02T21:15:09.861Z,99591.94
2022-10-02T21:18:10.219Z,99597.78
2022-10-02T21:21:02.143Z,99593.53
2022-10-02T21:24:01.561Z,99587.63
2022-10-02T21:27:22.840Z,99578.31
2022-10-02T21:30:04.506Z,99590.88
2022-10-02T21:32:41.874Z,99588.28
2022-10-02T21:35:35.679Z,99581.50
2022-10-02T21:38:32.244Z,99589.81
2022-10-02T21:41:28.509Z,99588.13
2022-10-02T21:44:26.929Z,99580.50
2022-10-02T21:47:27.398Z,99586.38
2022-10-02T21:50:23.404Z,99577.97
2022-10-02T21:53:24.572Z,99589.63
2022-10-02T21:56:31.270Z,99586.25
2022-10-02T21:59:34.601Z,99590.44
2022-10-02T22:02:32.054Z,99585.34
2022-10-02T22:05:29.329Z,99597.91
2022-10-02T22:08:10.612Z,99592.06
2022-10-02T22:10:49.220Z,99593.75
2022-10-02T22:13:27.351Z,99591.16
2022-10-02T22:16:09.852Z,99577.69
2022-10-02T22:18:46.554Z,99592.75
2022-10-02T22:21:42.323Z,99591.78
2022-10-02T22:24:43.166Z,99594.31
2022-10-02T22:27:43.295Z,99600.06
2022-10-02T22:30:22.897Z,99610.78
2022-10-02T22:33:12.246Z,99599.03
2022-10-02T22:36:01.971Z,99604.97
2022-10-02T22:38:34.360Z,99587.28
2022-10-02T22:41:08.066Z,99591.47
2022-10-02T22:43:43.529Z,99598.97
2022-10-02T22:46:25.574Z,99598.94
2022-10-02T22:49:00.604Z,99606.41
2022-10-02T22:51:38.020Z,99607.25
2022-10-02T22:54:19.144Z,99601.41
2022-10-02T22:56:57.524Z,99605.63
2022-10-02T22:59:31.025Z,99601.44
2022-10-02T23:02:08.197Z,99600.50
2022-10-02T23:04:44.656Z,99613.91
2022-10-02T23:07:17.160Z,99617.34
2022-10-02T23:09:51.548Z,99622.38
2022-10-02T23:12:28.067Z,99620.75
2022-10-02T23:15:07.025Z,99622.47
2022-10-02T23:17:43.483Z,99619.19
2022-10-02T23:20:17.953Z,99616.63
2022-10-02T23:22:55.510Z,99609.09
2022-10-02T23:25:32.277Z,99602.25
2022-10-02T23:28:04.565Z,99593.00
2022-10-02T23:30:36.378Z,99603.19
2022-10-02T23:33:08.484Z,99597.47
2022-10-02T23:35:47.655Z,99606.03
2022-10-02T23:38:20.360Z,99607.72
2022-10-02T23:41:20.394Z,99614.31
2022-10-02T23:43:57.722Z,99598.22
2022-10-02T23:46:29.970Z,99605.75
2022-10-02T23:48:57.941Z,99570.44
2022-10-02T23:51:36.197Z,99600.66
2022-10-02T23:54:22.373Z,99604.00
2022-10-02T23:57:17.521Z,99607.19
